Disclaimer

Please do not use the information listed here in-flight or in-navigation, as they are not provided to us by the airports but are provided by volunteers, so they might be outdated.

Search


Regions


Airport information page

Radio informations:
BLAGOVESCHENSK M - 126.4 MHz

Airport informations:
Latitude: 50° 25' 31.42" N
Longitude: 127° 24' 44.92" E
Elevation: 638 feet - 194 meters
Operating hours: 24 hour operations
Operating agency: Civil government, landing fees and diplomatic clearance may be required
Timezone: UTC+9(+10DT) - Last Sunday in March to last Sunday in October
Fuel: N/A

Runway information:
18/36 - 9256 x 148 feet< - >2821 x 45 meters

Recent METARs:
UHBB 211000Z 06002MPS CAVOK M18/M26 Q1020 R36/090060 NOSIG RMK QFE747/0996
UHBB 211030Z 00000MPS CAVOK M20/M26 Q1020 R36/090060 NOSIG RMK QFE747/0996
UHBB 211100Z 18001MPS CAVOK M19/M26 Q1020 R36/090060 NOSIG RMK QFE747/0996

Airport on the map: